»·PEaware :: TWA184 KLAX-KSJC

TWA184 :: KLAX-KSJC

FLIGHT INFORMATION

Flight Status: Arrived
Operator:
Trans World Airlines
More flights by this operator :: More flights under this callsign
Pilot: Ben F. (2808)
Aircraft: BOEING 727-200
(B722)
More flights by this aircraft type
Origin: KLAX Los Angeles Intl
United States
Destination: KSJC Mineta San Jose Intl
United States
More flights between these airports :: More routes between these airports
Route: +VTU8 VTU RZS ROBIE4
File this flight plan on PilotEdge
Remarks:
Altitude:
(Current/Filed)
32,000ft
Speed:
(Current/Filed)
490kts
Departed: 14-Sep-18 05:29 PM
Arrived: 14-Sep-18 06:18 PM
Distance/Time
Traveled:
268nm/0:49
Distance/Time
To Go:
Arrived

Flight Plot

Page will automatically refresh every two minutes.

Flight plan parsing failed; only flown route is shown


Map Options




Map Legend


Flown Route
Filed Route
Departure Airport
Arrival Airport
Navaid (VOR, NDB)
Fix

Horizontal Profiles

Position Reports

Time Latitude Longitude Heading Altitude Ground
Speed
14-Sep-18 17:06 33.940008 -118.406038 294 139ft 0kts
14-Sep-18 17:07 33.940008 -118.406038 294 139ft 0kts
14-Sep-18 17:08 33.940008 -118.406038 294 139ft 0kts
14-Sep-18 17:09 33.940008 -118.406038 294 139ft 0kts
14-Sep-18 17:10 33.940008 -118.406038 294 139ft 0kts
14-Sep-18 17:11 33.940008 -118.406038 294 139ft 0kts
14-Sep-18 17:12 33.940008 -118.406038 294 139ft 0kts
14-Sep-18 17:13 33.940008 -118.406038 294 139ft 0kts
14-Sep-18 17:14 33.940008 -118.406038 294 139ft 0kts
14-Sep-18 17:15 33.940008 -118.406038 294 139ft 0kts
14-Sep-18 17:16 33.939955 -118.405811 261 139ft 2kts
14-Sep-18 17:17 33.940311 -118.405504 172 139ft 1kts
14-Sep-18 17:18 33.940327 -118.405507 172 139ft 0kts
14-Sep-18 17:19 33.940327 -118.405507 172 139ft 0kts
14-Sep-18 17:20 33.940327 -118.405507 172 139ft 0kts
14-Sep-18 17:21 33.940019 -118.405464 174 139ft 4kts
14-Sep-18 17:22 33.939819 -118.405439 174 139ft 0kts
14-Sep-18 17:23 33.939818 -118.405439 174 139ft 0kts
14-Sep-18 17:24 33.939439 -118.405383 173 139ft 9kts
14-Sep-18 17:25 33.938666 -118.401038 83 139ft 28kts
14-Sep-18 17:26 33.939668 -118.391429 83 139ft 30kts
14-Sep-18 17:27 33.940493 -118.383105 82 139ft 24kts
14-Sep-18 17:28 33.940735 -118.380283 122 139ft 0kts
14-Sep-18 17:29 33.940735 -118.380283 122 139ft 0kts
14-Sep-18 17:30 33.939812 -118.380474 261 139ft 12kts
14-Sep-18 17:31 33.937698 -118.401284 262 219ft 167kts
14-Sep-18 17:32 33.933389 -118.458789 263 2286ft 198kts
14-Sep-18 17:33 33.927134 -118.534339 263 4572ft 261kts
14-Sep-18 17:34 33.920192 -118.624213 263 7947ft 277kts
14-Sep-18 17:35 33.913739 -118.715651 262 10910ft 291kts
14-Sep-18 17:36 33.911117 -118.818344 285 13067ft 332kts
14-Sep-18 17:37 33.968960 -118.911320 303 15158ft 364kts
14-Sep-18 17:38 34.031017 -119.008323 302 17583ft 373kts
14-Sep-18 17:39 34.094545 -119.108403 302 19660ft 384kts
14-Sep-18 17:40 34.157286 -119.207536 301 21393ft 393kts
14-Sep-18 17:41 34.223693 -119.312753 301 22992ft 402kts
14-Sep-18 17:42 34.291633 -119.420725 301 24366ft 411kts
14-Sep-18 17:43 34.361228 -119.531653 301 25622ft 418kts
14-Sep-18 17:44 34.431607 -119.644190 301 26731ft 425kts
14-Sep-18 17:45 34.501526 -119.755938 303 27802ft 433kts
14-Sep-18 17:46 34.600763 -119.845547 319 28749ft 452kts
14-Sep-18 17:47 34.704000 -119.931129 319 29789ft 455kts
14-Sep-18 17:48 34.808561 -120.017801 319 30793ft 456kts
14-Sep-18 17:49 34.912890 -120.104516 319 31706ft 458kts
14-Sep-18 17:50 35.019397 -120.193369 318 31922ft 475kts
14-Sep-18 17:51 35.129439 -120.285487 318 31908ft 495kts
14-Sep-18 17:52 35.240617 -120.378793 318 31907ft 501kts
14-Sep-18 17:53 35.354938 -120.475098 318 31907ft 506kts
14-Sep-18 17:54 35.470580 -120.572858 318 31891ft 510kts
14-Sep-18 17:55 35.572369 -120.659190 318 31885ft 510kts
14-Sep-18 17:56 35.687851 -120.757660 318 31890ft 512kts
14-Sep-18 17:57 35.803106 -120.856346 318 31562ft 503kts
14-Sep-18 17:58 35.915858 -120.953186 318 29247ft 493kts
14-Sep-18 17:59 36.026800 -121.048506 318 26918ft 480kts
14-Sep-18 18:00 36.121838 -121.130277 318 25169ft 463kts
14-Sep-18 18:01 36.205775 -121.202720 318 23523ft 450kts
14-Sep-18 18:02 36.320209 -121.301794 318 21501ft 426kts
14-Sep-18 18:03 36.413676 -121.382934 319 19907ft 406kts
14-Sep-18 18:04 36.500069 -121.458572 318 18937ft 372kts
14-Sep-18 18:05 36.568488 -121.518965 322 16928ft 359kts
14-Sep-18 18:06 36.679014 -121.553759 345 14149ft 345kts
14-Sep-18 18:07 36.754709 -121.573770 346 12153ft 328kts
14-Sep-18 18:08 36.840278 -121.556973 12 9771ft 306kts
14-Sep-18 18:09 36.918985 -121.544328 335 7385ft 276kts
14-Sep-18 18:10 36.988922 -121.583739 333 5700ft 280kts
14-Sep-18 18:11 37.053503 -121.619655 333 4270ft 247kts
14-Sep-18 18:12 37.111567 -121.655676 326 3965ft 235kts
14-Sep-18 18:13 37.155214 -121.697778 317 3957ft 207kts
14-Sep-18 18:14 37.195700 -121.740912 317 3610ft 189kts
14-Sep-18 18:15 37.231779 -121.783669 318 3004ft 176kts
14-Sep-18 18:16 37.268520 -121.823624 318 2075ft 177kts
14-Sep-18 18:17 37.300054 -121.858296 321 1271ft 142kts
14-Sep-18 18:18 37.325326 -121.885893 321 903ft 124kts
14-Sep-18 18:19 37.351099 -121.914016 321 249ft 125kts
14-Sep-18 18:20 37.368080 -121.932385 350 74ft 11kts
14-Sep-18 18:21 37.368810 -121.931992 39 74ft 5kts
14-Sep-18 18:22 37.367545 -121.929362 137 74ft 13kts
14-Sep-18 18:23 37.367162 -121.927802 50 74ft 2kts
14-Sep-18 18:24 37.367164 -121.927798 50 74ft 0kts

Navigation Log

Ident Type
Flight plan parsing failed, navigation log unavailable